createdAt,value
2017-09-26T00:00:18.770Z,0
2017-09-26T00:01:20.394Z,0
2017-09-26T00:02:22.020Z,0
2017-09-26T00:03:23.652Z,0
2017-09-26T00:04:25.282Z,0
2017-09-26T00:05:26.917Z,0
2017-09-26T00:06:28.541Z,0
2017-09-26T00:07:30.174Z,0
2017-09-26T00:08:31.799Z,0
2017-09-26T00:09:33.431Z,0
2017-09-26T00:10:35.061Z,0
2017-09-26T00:11:36.700Z,0
2017-09-26T00:12:38.334Z,0
2017-09-26T00:13:39.967Z,0
2017-09-26T00:14:41.596Z,0
2017-09-26T00:15:43.222Z,0
2017-09-26T00:16:44.857Z,0
2017-09-26T00:17:46.485Z,0
2017-09-26T00:18:48.116Z,0
2017-09-26T00:19:49.747Z,0
2017-09-26T00:20:51.376Z,0
2017-09-26T00:21:53.007Z,0
2017-09-26T00:22:54.632Z,0
2017-09-26T00:23:56.268Z,0
2017-09-26T00:24:57.894Z,0
2017-09-26T00:25:59.523Z,0
2017-09-26T00:27:01.154Z,0
2017-09-26T00:28:02.784Z,0
2017-09-26T00:29:04.639Z,0
2017-09-26T00:30:06.354Z,0
2017-09-26T00:31:08.187Z,0
2017-09-26T00:32:09.929Z,0
2017-09-26T00:33:11.818Z,0
2017-09-26T00:34:13.953Z,0
2017-09-26T00:35:15.733Z,0
2017-09-26T00:36:17.424Z,0
2017-09-26T00:37:19.171Z,0
2017-09-26T00:38:20.792Z,0
2017-09-26T00:39:22.528Z,0
2017-09-26T00:40:24.453Z,0
2017-09-26T00:41:26.105Z,0
2017-09-26T00:42:27.995Z,0
2017-09-26T00:43:29.746Z,0
2017-09-26T00:44:31.586Z,0
2017-09-26T00:45:33.232Z,0
2017-09-26T00:46:34.939Z,0
2017-09-26T00:47:36.802Z,0
2017-09-26T00:48:39.050Z,0
2017-09-26T00:49:40.965Z,0
2017-09-26T00:50:43.437Z,0
2017-09-26T00:51:45.634Z,0
2017-09-26T00:52:47.697Z,0
2017-09-26T00:53:49.782Z,0
2017-09-26T00:54:51.926Z,0
2017-09-26T00:55:53.922Z,0
2017-09-26T00:56:55.839Z,0
2017-09-26T00:57:57.787Z,0
2017-09-26T00:58:59.863Z,0
2017-09-26T01:00:02.053Z,0
2017-09-26T01:01:04.322Z,0
2017-09-26T01:02:06.328Z,0
2017-09-26T01:03:08.289Z,0
2017-09-26T01:04:10.427Z,0
2017-09-26T01:05:12.531Z,0
2017-09-26T01:06:14.402Z,0
2017-09-26T01:07:16.461Z,0
2017-09-26T01:08:18.278Z,0
2017-09-26T01:09:20.401Z,0
2017-09-26T01:10:22.469Z,0
2017-09-26T01:11:24.617Z,0
2017-09-26T01:12:26.593Z,0
2017-09-26T01:13:28.734Z,0
2017-09-26T01:14:30.650Z,0
2017-09-26T01:15:32.649Z,0
2017-09-26T01:16:34.682Z,0
2017-09-26T01:17:36.715Z,0
2017-09-26T01:18:38.796Z,0
2017-09-26T01:19:40.951Z,0
2017-09-26T01:20:43.173Z,0
2017-09-26T01:21:45.182Z,0
2017-09-26T01:22:47.191Z,0
2017-09-26T01:23:49.186Z,0
2017-09-26T01:24:51.310Z,0
2017-09-26T01:25:53.313Z,0
2017-09-26T01:26:55.456Z,0
2017-09-26T01:27:57.713Z,0
2017-09-26T01:28:59.614Z,0
2017-09-26T01:30:01.608Z,0
2017-09-26T01:31:03.853Z,0
2017-09-26T01:32:05.894Z,0
2017-09-26T01:33:07.997Z,0
2017-09-26T01:34:10.256Z,0
2017-09-26T01:35:12.047Z,0
2017-09-26T01:36:14.269Z,0
2017-09-26T01:37:16.352Z,0
2017-09-26T01:38:18.231Z,0
2017-09-26T01:39:20.218Z,0
2017-09-26T01:40:22.250Z,0
2017-09-26T01:41:24.153Z,0
2017-09-26T01:42:26.097Z,0
2017-09-26T01:43:28.024Z,0
2017-09-26T01:44:30.224Z,0
2017-09-26T01:45:32.207Z,0
2017-09-26T01:46:34.187Z,0
2017-09-26T01:47:36.226Z,0
2017-09-26T01:48:38.069Z,0
2017-09-26T01:49:40.180Z,0
2017-09-26T01:50:42.272Z,0
2017-09-26T01:51:44.205Z,0
2017-09-26T01:52:46.087Z,0
2017-09-26T01:53:47.946Z,0
2017-09-26T01:54:50.011Z,0
2017-09-26T01:55:52.147Z,0
2017-09-26T01:56:54.333Z,0
2017-09-26T01:57:56.616Z,0
2017-09-26T01:58:58.847Z,0
2017-09-26T02:00:01.266Z,0
2017-09-26T02:01:03.295Z,0
2017-09-26T02:02:05.590Z,0
2017-09-26T02:03:07.630Z,0
2017-09-26T02:04:09.614Z,0
2017-09-26T02:05:11.799Z,0
2017-09-26T02:06:13.913Z,0
2017-09-26T02:07:15.884Z,0
2017-09-26T02:08:17.969Z,0
2017-09-26T02:09:19.828Z,0
2017-09-26T02:10:21.932Z,0
2017-09-26T02:11:23.907Z,0
2017-09-26T02:12:25.505Z,0
2017-09-26T02:13:27.129Z,0
2017-09-26T02:14:28.747Z,0
2017-09-26T02:15:30.449Z,0
2017-09-26T02:16:32.078Z,0
2017-09-26T02:17:33.707Z,0
2017-09-26T02:18:35.390Z,0
2017-09-26T02:19:37.016Z,0
2017-09-26T02:20:38.637Z,0
2017-09-26T02:21:40.371Z,0
2017-09-26T02:22:42.085Z,0
2017-09-26T02:23:43.708Z,0
2017-09-26T02:24:45.327Z,0
2017-09-26T02:25:46.953Z,0
2017-09-26T02:26:48.577Z,0
2017-09-26T02:27:50.202Z,0
2017-09-26T02:28:51.819Z,0
2017-09-26T02:29:53.443Z,0
2017-09-26T02:30:55.074Z,0
2017-09-26T02:31:56.703Z,0
2017-09-26T02:32:58.330Z,0
2017-09-26T02:33:59.961Z,0
2017-09-26T02:35:01.589Z,0
2017-09-26T02:36:03.271Z,0
2017-09-26T02:37:04.946Z,0
2017-09-26T02:38:06.572Z,0
2017-09-26T02:39:08.193Z,0
2017-09-26T02:40:09.815Z,0
2017-09-26T02:41:11.442Z,0
2017-09-26T02:42:13.084Z,0
2017-09-26T02:43:14.750Z,0
2017-09-26T02:44:16.372Z,0
2017-09-26T02:45:17.998Z,0
2017-09-26T02:46:19.622Z,0
2017-09-26T02:47:21.250Z,0
2017-09-26T02:48:22.889Z,0
2017-09-26T02:49:24.521Z,0
2017-09-26T02:50:26.142Z,0
2017-09-26T02:51:27.862Z,0
2017-09-26T02:52:29.490Z,0
2017-09-26T02:53:31.113Z,0
2017-09-26T02:54:32.744Z,0
2017-09-26T02:55:34.363Z,0
2017-09-26T02:56:36.088Z,0
2017-09-26T02:57:37.687Z,0
2017-09-26T02:58:39.310Z,0
2017-09-26T02:59:40.935Z,0
2017-09-26T03:00:42.557Z,0
2017-09-26T03:01:44.177Z,0
2017-09-26T03:02:45.801Z,0
2017-09-26T03:03:47.424Z,0
2017-09-26T03:04:49.044Z,0
2017-09-26T03:05:50.666Z,0
2017-09-26T03:06:52.290Z,0
2017-09-26T03:07:53.912Z,0
2017-09-26T03:08:55.533Z,0
2017-09-26T03:09:57.155Z,0
2017-09-26T03:10:58.775Z,0
2017-09-26T03:12:00.402Z,0
2017-09-26T03:13:02.024Z,0
2017-09-26T03:14:03.646Z,0
2017-09-26T03:15:05.272Z,0
2017-09-26T03:16:06.909Z,0
2017-09-26T03:17:08.528Z,0
2017-09-26T03:18:10.150Z,0
2017-09-26T03:19:11.772Z,0
2017-09-26T03:20:13.397Z,0
2017-09-26T03:21:15.020Z,0
2017-09-26T03:22:16.662Z,0
2017-09-26T03:23:18.285Z,0
2017-09-26T03:24:19.912Z,0
2017-09-26T03:25:21.532Z,0
2017-09-26T03:26:23.152Z,0
2017-09-26T03:27:24.775Z,0
2017-09-26T03:28:26.397Z,0
2017-09-26T03:29:28.019Z,0
2017-09-26T03:30:29.644Z,0
2017-09-26T03:31:31.263Z,0
2017-09-26T03:32:32.882Z,0
2017-09-26T03:33:34.505Z,0
2017-09-26T03:34:36.129Z,0
2017-09-26T03:35:37.751Z,0
2017-09-26T03:36:39.376Z,0
2017-09-26T03:37:40.992Z,0
2017-09-26T03:38:42.618Z,0
2017-09-26T03:39:44.246Z,0
2017-09-26T03:40:45.866Z,0
2017-09-26T03:41:47.487Z,0
2017-09-26T03:42:49.113Z,0
2017-09-26T03:43:50.735Z,0
2017-09-26T03:44:52.353Z,0
2017-09-26T03:45:53.974Z,0
2017-09-26T03:46:55.604Z,0
2017-09-26T03:47:57.225Z,0
2017-09-26T03:48:58.847Z,0
2017-09-26T03:50:00.471Z,0
2017-09-26T03:51:02.094Z,0
2017-09-26T03:52:03.715Z,0
2017-09-26T03:53:05.336Z,0
2017-09-26T03:54:06.957Z,0
2017-09-26T03:55:08.582Z,0
2017-09-26T03:56:10.204Z,0
2017-09-26T03:57:11.824Z,0
2017-09-26T03:58:13.450Z,0
2017-09-26T03:59:15.070Z,0
2017-09-26T04:00:16.771Z,0
2017-09-26T04:01:18.384Z,0
2017-09-26T04:02:20.006Z,0
2017-09-26T04:03:21.627Z,0
2017-09-26T04:04:23.250Z,0
2017-09-26T04:05:24.876Z,0
2017-09-26T04:06:26.497Z,0
2017-09-26T04:07:28.118Z,0
2017-09-26T04:08:29.755Z,0
2017-09-26T04:09:31.365Z,0
2017-09-26T04:10:32.987Z,0
2017-09-26T04:11:34.613Z,0
2017-09-26T04:12:36.235Z,0
2017-09-26T04:13:37.856Z,0
2017-09-26T04:14:39.480Z,0
2017-09-26T04:15:41.103Z,0
2017-09-26T04:16:42.725Z,0
2017-09-26T04:17:44.350Z,0
2017-09-26T04:18:45.972Z,0
2017-09-26T04:19:47.600Z,0
2017-09-26T04:20:49.219Z,0
2017-09-26T04:21:50.841Z,0
2017-09-26T04:22:52.463Z,0
2017-09-26T04:23:54.086Z,0
2017-09-26T04:24:55.708Z,0
2017-09-26T04:25:57.331Z,0
2017-09-26T04:26:58.954Z,0
2017-09-26T04:28:00.575Z,0
2017-09-26T04:29:02.198Z,0
2017-09-26T04:30:03.827Z,0
2017-09-26T04:31:05.442Z,0
2017-09-26T04:32:07.066Z,0
2017-09-26T04:33:08.692Z,0
2017-09-26T04:34:10.314Z,0
2017-09-26T04:35:11.936Z,0
2017-09-26T04:36:13.559Z,0
2017-09-26T04:37:15.180Z,0
2017-09-26T04:38:16.802Z,0
2017-09-26T04:39:18.425Z,0
2017-09-26T04:40:20.137Z,0
2017-09-26T04:41:21.764Z,0
2017-09-26T04:42:23.389Z,0
2017-09-26T04:43:25.010Z,0
2017-09-26T04:44:26.632Z,0
2017-09-26T04:45:28.252Z,0
2017-09-26T04:46:29.878Z,0
2017-09-26T04:47:31.509Z,0
2017-09-26T04:48:33.133Z,0
2017-09-26T04:49:34.770Z,0
2017-09-26T04:50:36.393Z,0
2017-09-26T04:51:38.015Z,0
2017-09-26T04:52:39.635Z,0
2017-09-26T04:53:41.258Z,0
2017-09-26T04:54:42.882Z,0
2017-09-26T04:55:44.508Z,0
2017-09-26T04:56:46.130Z,0
2017-09-26T04:57:47.750Z,0
2017-09-26T04:58:49.372Z,0
2017-09-26T04:59:50.993Z,0
2017-09-26T05:00:52.622Z,0
2017-09-26T05:01:54.245Z,0
2017-09-26T05:02:55.872Z,0
2017-09-26T05:03:57.492Z,0
2017-09-26T05:04:59.114Z,0
2017-09-26T05:06:00.737Z,0
2017-09-26T05:07:02.363Z,0
2017-09-26T05:08:03.981Z,0
2017-09-26T05:09:05.604Z,0
2017-09-26T05:10:07.229Z,0
2017-09-26T05:11:08.855Z,0
2017-09-26T05:12:10.472Z,0
2017-09-26T05:13:12.094Z,0
2017-09-26T05:14:13.719Z,0
2017-09-26T05:15:15.345Z,0
2017-09-26T05:16:16.970Z,0
2017-09-26T05:17:18.593Z,0
2017-09-26T05:18:20.217Z,0
2017-09-26T05:19:21.838Z,0
2017-09-26T05:20:23.465Z,0
2017-09-26T05:21:25.088Z,0
2017-09-26T05:22:26.711Z,0
2017-09-26T05:23:28.339Z,0
2017-09-26T05:24:29.963Z,0
2017-09-26T05:25:31.590Z,0
2017-09-26T05:26:33.208Z,0
2017-09-26T05:27:34.833Z,0
2017-09-26T05:28:36.457Z,0
2017-09-26T05:29:38.081Z,0
2017-09-26T05:30:39.705Z,0
2017-09-26T05:31:41.329Z,0
2017-09-26T05:32:42.948Z,0
2017-09-26T05:33:44.573Z,0
2017-09-26T05:34:46.200Z,0
2017-09-26T05:35:47.822Z,0
2017-09-26T05:36:49.448Z,0
2017-09-26T05:37:51.072Z,0
2017-09-26T05:38:52.698Z,0
2017-09-26T05:39:54.321Z,5
2017-09-26T05:40:55.945Z,5
2017-09-26T05:41:57.572Z,5
2017-09-26T05:42:59.194Z,5
2017-09-26T05:44:00.820Z,5
2017-09-26T05:45:02.449Z,5
2017-09-26T05:46:04.077Z,5
2017-09-26T05:47:05.702Z,5
2017-09-26T05:48:07.326Z,5
2017-09-26T05:49:08.952Z,5
2017-09-26T05:50:10.578Z,10
2017-09-26T05:51:12.202Z,10
2017-09-26T05:52:13.829Z,10
2017-09-26T05:53:15.456Z,10
2017-09-26T05:54:17.085Z,10
2017-09-26T05:55:18.717Z,10
2017-09-26T05:56:20.337Z,10
2017-09-26T05:57:21.965Z,15
2017-09-26T05:58:23.588Z,15
2017-09-26T05:59:25.219Z,15
2017-09-26T06:00:26.845Z,15
2017-09-26T06:01:28.472Z,15
2017-09-26T06:02:30.099Z,15
2017-09-26T06:03:31.723Z,20
2017-09-26T06:04:33.349Z,20
2017-09-26T06:05:34.975Z,20
2017-09-26T06:06:36.603Z,20
2017-09-26T06:07:38.235Z,20
2017-09-26T06:08:39.862Z,20
2017-09-26T06:09:41.483Z,20
2017-09-26T06:10:43.109Z,25
2017-09-26T06:11:44.737Z,25
2017-09-26T06:12:46.362Z,25
2017-09-26T06:13:47.992Z,25
2017-09-26T06:14:49.619Z,25
2017-09-26T06:15:51.253Z,25
2017-09-26T06:16:52.879Z,25
2017-09-26T06:17:54.505Z,25
2017-09-26T06:18:56.130Z,30
2017-09-26T06:19:57.756Z,30
2017-09-26T06:20:59.382Z,30
2017-09-26T06:22:01.007Z,30
2017-09-26T06:23:02.651Z,30
2017-09-26T06:24:04.261Z,35
2017-09-26T06:25:05.887Z,35
2017-09-26T06:26:07.515Z,35
2017-09-26T06:27:09.137Z,35
2017-09-26T06:28:10.766Z,35
2017-09-26T06:29:12.392Z,35
2017-09-26T06:30:14.018Z,40
2017-09-26T06:31:15.646Z,40
2017-09-26T06:32:17.274Z,40
2017-09-26T06:33:18.897Z,40
2017-09-26T06:34:20.526Z,40
2017-09-26T06:35:22.154Z,40
2017-09-26T06:36:23.782Z,45
2017-09-26T06:37:25.415Z,40
2017-09-26T06:38:27.043Z,45
2017-09-26T06:39:28.671Z,45
2017-09-26T06:40:30.297Z,45
2017-09-26T06:41:31.926Z,45
2017-09-26T06:42:33.582Z,45
2017-09-26T06:43:35.210Z,45
2017-09-26T06:44:36.837Z,60
2017-09-26T06:45:38.464Z,75
2017-09-26T06:46:40.102Z,80
2017-09-26T06:47:41.727Z,65
2017-09-26T06:48:43.354Z,60
2017-09-26T06:49:44.980Z,65
2017-09-26T06:50:46.611Z,60
2017-09-26T06:51:48.233Z,65
2017-09-26T06:52:49.858Z,70
2017-09-26T06:53:51.486Z,65
2017-09-26T06:54:53.114Z,60
2017-09-26T06:55:54.741Z,65
2017-09-26T06:56:56.367Z,60
2017-09-26T06:58:08.811Z,65
2017-09-26T06:59:10.438Z,60
2017-09-26T07:00:12.063Z,60
2017-09-26T07:01:13.687Z,60
2017-09-26T07:02:15.315Z,65
2017-09-26T07:03:16.940Z,65
2017-09-26T07:04:18.566Z,65
2017-09-26T07:05:20.195Z,65
2017-09-26T07:06:21.819Z,65
2017-09-26T07:07:23.449Z,70
2017-09-26T07:08:25.076Z,70
2017-09-26T07:09:26.703Z,70
2017-09-26T07:10:28.328Z,75
2017-09-26T07:11:29.956Z,80
2017-09-26T07:12:31.586Z,75
2017-09-26T07:13:33.212Z,75
2017-09-26T07:14:34.839Z,80
2017-09-26T07:15:36.466Z,80
2017-09-26T07:16:38.093Z,80
2017-09-26T07:17:39.720Z,85
2017-09-26T07:18:41.347Z,90
2017-09-26T07:19:42.976Z,90
2017-09-26T07:20:44.601Z,90
2017-09-26T07:21:46.234Z,100
2017-09-26T07:22:47.858Z,95
2017-09-26T07:23:49.488Z,100
2017-09-26T07:24:51.117Z,100
2017-09-26T07:25:52.745Z,100
2017-09-26T07:26:54.376Z,100
2017-09-26T07:27:56.005Z,100
2017-09-26T07:28:57.634Z,100
2017-09-26T07:29:59.260Z,105
2017-09-26T07:31:00.889Z,100
2017-09-26T07:32:02.521Z,100
2017-09-26T07:33:04.150Z,105
2017-09-26T07:34:05.778Z,105
2017-09-26T07:35:07.408Z,105
2017-09-26T07:36:09.036Z,110
2017-09-26T07:37:10.664Z,110
2017-09-26T07:38:12.291Z,110
2017-09-26T07:39:13.918Z,110
2017-09-26T07:40:15.547Z,110
2017-09-26T07:41:17.176Z,110
2017-09-26T07:42:18.814Z,115
2017-09-26T07:43:20.440Z,115
2017-09-26T07:44:22.069Z,115
2017-09-26T07:45:23.695Z,120
2017-09-26T07:46:25.324Z,125
2017-09-26T07:47:26.958Z,120
2017-09-26T07:48:28.590Z,125
2017-09-26T07:49:30.218Z,125
2017-09-26T07:50:31.845Z,125
2017-09-26T07:51:33.476Z,125
2017-09-26T07:52:35.103Z,125
2017-09-26T07:53:36.731Z,125
2017-09-26T07:54:38.359Z,125
2017-09-26T07:55:39.992Z,125
2017-09-26T07:56:41.614Z,130
2017-09-26T07:57:43.247Z,130
2017-09-26T07:58:44.870Z,130
2017-09-26T07:59:46.502Z,130
2017-09-26T08:00:48.130Z,130
2017-09-26T08:01:49.759Z,130
2017-09-26T08:02:51.394Z,130
2017-09-26T08:03:53.023Z,130
2017-09-26T08:04:54.651Z,130
2017-09-26T08:05:56.277Z,130
2017-09-26T08:06:57.903Z,130
2017-09-26T08:07:59.541Z,130
2017-09-26T08:09:01.168Z,130
2017-09-26T08:10:02.797Z,130
2017-09-26T08:11:04.457Z,135
2017-09-26T08:12:06.072Z,135
2017-09-26T08:13:07.732Z,135
2017-09-26T08:14:09.366Z,140
2017-09-26T08:15:10.956Z,140
2017-09-26T08:16:12.587Z,140
2017-09-26T08:17:14.215Z,145
2017-09-26T08:18:15.843Z,145
2017-09-26T08:19:17.473Z,145
2017-09-26T08:20:19.098Z,145
2017-09-26T08:21:20.728Z,145
2017-09-26T08:22:22.355Z,145
2017-09-26T08:23:23.988Z,145
2017-09-26T08:24:25.618Z,145
2017-09-26T08:25:27.248Z,145
2017-09-26T08:26:28.874Z,150
2017-09-26T08:27:30.501Z,150
2017-09-26T08:28:32.141Z,150
2017-09-26T08:29:33.771Z,150
2017-09-26T08:30:35.398Z,155
2017-09-26T08:31:37.023Z,155
2017-09-26T08:32:38.654Z,150
2017-09-26T08:33:40.279Z,150
2017-09-26T08:34:41.910Z,150
2017-09-26T08:35:43.539Z,150
2017-09-26T08:36:45.170Z,150
2017-09-26T08:37:46.798Z,150
2017-09-26T08:38:48.431Z,155
2017-09-26T08:39:50.057Z,155
2017-09-26T08:40:51.694Z,155
2017-09-26T08:41:53.326Z,155
2017-09-26T08:42:54.951Z,160
2017-09-26T08:43:56.584Z,165
2017-09-26T08:44:58.213Z,165
2017-09-26T08:45:59.844Z,170
2017-09-26T08:47:01.471Z,170
2017-09-26T08:48:03.090Z,170
2017-09-26T08:49:04.726Z,170
2017-09-26T08:50:06.355Z,170
2017-09-26T08:51:07.983Z,170
2017-09-26T08:52:09.615Z,170
2017-09-26T08:53:11.243Z,175
2017-09-26T08:54:12.871Z,175
2017-09-26T08:55:14.501Z,180
2017-09-26T08:56:16.131Z,180
2017-09-26T08:57:17.760Z,180
2017-09-26T08:58:19.388Z,180
2017-09-26T08:59:21.015Z,175
2017-09-26T09:00:22.643Z,175
2017-09-26T09:01:24.272Z,175
2017-09-26T09:02:25.900Z,175
2017-09-26T09:03:27.530Z,175
2017-09-26T09:04:29.161Z,185
2017-09-26T09:05:30.799Z,180
2017-09-26T09:06:32.427Z,180
2017-09-26T09:07:34.063Z,185
2017-09-26T09:08:35.686Z,185
2017-09-26T09:09:37.315Z,190
2017-09-26T09:10:38.943Z,190
2017-09-26T09:11:40.570Z,195
2017-09-26T09:12:42.198Z,195
2017-09-26T09:13:43.829Z,195
2017-09-26T09:14:45.469Z,200
2017-09-26T09:15:47.108Z,200
2017-09-26T09:16:48.748Z,205
2017-09-26T09:17:50.366Z,210
2017-09-26T09:18:51.996Z,215
2017-09-26T09:19:53.626Z,215
2017-09-26T09:20:55.254Z,220
2017-09-26T09:21:56.887Z,225
2017-09-26T09:22:58.514Z,225
2017-09-26T09:24:00.143Z,230
2017-09-26T09:25:01.773Z,235
2017-09-26T09:26:03.397Z,240
2017-09-26T09:27:05.031Z,250
2017-09-26T09:28:06.656Z,255
2017-09-26T09:29:08.288Z,260
2017-09-26T09:30:09.918Z,265
2017-09-26T09:31:11.546Z,270
2017-09-26T09:32:13.174Z,270
2017-09-26T09:33:14.803Z,270
2017-09-26T09:34:16.433Z,270
2017-09-26T09:35:18.062Z,270
2017-09-26T09:36:19.711Z,265
2017-09-26T09:37:21.356Z,270
2017-09-26T09:38:23.011Z,270
2017-09-26T09:39:24.627Z,270
2017-09-26T09:40:26.257Z,275
2017-09-26T09:41:27.890Z,275
2017-09-26T09:42:29.529Z,280
2017-09-26T09:43:31.154Z,280
2017-09-26T09:44:32.781Z,280
2017-09-26T09:45:34.414Z,275
2017-09-26T09:46:36.042Z,275
2017-09-26T09:47:37.729Z,270
2017-09-26T09:48:39.335Z,270
2017-09-26T09:49:40.951Z,270
2017-09-26T09:50:42.572Z,265
2017-09-26T09:51:44.196Z,270
2017-09-26T09:52:45.822Z,270
2017-09-26T09:53:47.453Z,270
2017-09-26T09:54:49.082Z,270
2017-09-26T09:55:50.730Z,270
2017-09-26T09:56:52.360Z,270
2017-09-26T09:57:53.990Z,265
2017-09-26T09:58:55.623Z,260
2017-09-26T09:59:57.249Z,260
2017-09-26T10:00:58.877Z,260
2017-09-26T10:02:00.506Z,265
2017-09-26T10:03:02.144Z,270
2017-09-26T10:04:03.781Z,275
2017-09-26T10:05:05.416Z,280
2017-09-26T10:06:07.042Z,285
2017-09-26T10:07:08.673Z,295
2017-09-26T10:08:10.307Z,295
2017-09-26T10:09:11.935Z,295
2017-09-26T10:10:13.566Z,295
2017-09-26T10:11:15.207Z,295
2017-09-26T10:12:16.844Z,295
2017-09-26T10:13:18.476Z,295
2017-09-26T10:14:20.109Z,300
2017-09-26T10:15:21.740Z,310
2017-09-26T10:16:23.370Z,320
2017-09-26T10:17:25.003Z,325
2017-09-26T10:18:26.664Z,325
2017-09-26T10:19:28.268Z,325
2017-09-26T10:20:29.896Z,325
2017-09-26T10:21:31.528Z,315
2017-09-26T10:22:33.156Z,310
2017-09-26T10:23:34.795Z,315
2017-09-26T10:24:36.429Z,315
2017-09-26T10:25:38.065Z,320
2017-09-26T10:26:39.696Z,330
2017-09-26T10:27:41.327Z,340
2017-09-26T10:28:42.959Z,350
2017-09-26T10:29:44.596Z,365
2017-09-26T10:30:46.229Z,370
2017-09-26T10:31:47.859Z,380
2017-09-26T10:32:49.492Z,470
2017-09-26T10:33:51.124Z,935
2017-09-26T10:34:52.758Z,720
2017-09-26T10:35:54.389Z,585
2017-09-26T10:36:56.021Z,580
2017-09-26T10:37:57.655Z,580
2017-09-26T10:38:59.287Z,560
2017-09-26T10:40:00.919Z,665
2017-09-26T10:41:02.555Z,575
2017-09-26T10:42:04.208Z,550
2017-09-26T10:43:05.847Z,550
2017-09-26T10:44:07.477Z,580
2017-09-26T10:45:09.123Z,595
2017-09-26T10:46:10.761Z,570
2017-09-26T10:47:12.393Z,555
2017-09-26T10:48:14.032Z,525
2017-09-26T10:49:15.668Z,490
2017-09-26T10:50:17.295Z,460
2017-09-26T10:51:18.928Z,435
2017-09-26T10:52:20.566Z,420
2017-09-26T10:53:22.200Z,445
2017-09-26T10:54:23.835Z,430
2017-09-26T10:55:25.475Z,455
2017-09-26T10:56:27.104Z,560
2017-09-26T10:57:28.736Z,590
2017-09-26T10:58:30.376Z,610
2017-09-26T10:59:32.008Z,685
2017-09-26T11:00:33.644Z,695
2017-09-26T11:01:35.278Z,735
2017-09-26T11:02:36.913Z,820
2017-09-26T11:03:38.546Z,640
2017-09-26T11:04:40.178Z,590
2017-09-26T11:05:41.812Z,715
2017-09-26T11:06:43.446Z,630
2017-09-26T11:07:45.080Z,580
2017-09-26T11:08:46.715Z,570
2017-09-26T11:09:48.351Z,600
2017-09-26T11:10:49.981Z,625
2017-09-26T11:11:51.617Z,580
2017-09-26T11:12:53.247Z,515
2017-09-26T11:13:54.881Z,460
2017-09-26T11:14:56.514Z,425
2017-09-26T11:15:58.148Z,405
2017-09-26T11:16:59.789Z,385
2017-09-26T11:18:01.414Z,360
2017-09-26T11:19:03.047Z,340
2017-09-26T11:20:04.679Z,320
2017-09-26T11:21:06.309Z,310
2017-09-26T11:22:07.952Z,295
2017-09-26T11:23:09.587Z,285
2017-09-26T11:24:11.218Z,275
2017-09-26T11:25:12.851Z,270
2017-09-26T11:26:14.483Z,265
2017-09-26T11:27:16.116Z,255
2017-09-26T11:28:17.747Z,245
2017-09-26T11:29:19.380Z,240
2017-09-26T11:30:21.012Z,235
2017-09-26T11:31:22.644Z,230
2017-09-26T11:32:24.896Z,225
2017-09-26T11:33:26.528Z,220
2017-09-26T11:34:28.159Z,215
2017-09-26T11:35:29.788Z,220
2017-09-26T11:36:31.422Z,215
2017-09-26T11:37:33.054Z,210
2017-09-26T11:38:34.684Z,205
2017-09-26T11:39:36.314Z,200
2017-09-26T11:40:37.945Z,190
2017-09-26T11:41:39.575Z,180
2017-09-26T11:42:41.207Z,180
2017-09-26T11:43:42.836Z,175
2017-09-26T11:44:44.468Z,175
2017-09-26T11:45:46.103Z,175
2017-09-26T11:46:47.734Z,175
2017-09-26T11:47:49.363Z,165
2017-09-26T11:48:50.997Z,160
2017-09-26T11:49:52.626Z,150
2017-09-26T11:50:54.257Z,140
2017-09-26T11:51:55.890Z,130
2017-09-26T11:52:57.521Z,125
2017-09-26T11:53:59.152Z,120
2017-09-26T11:55:00.783Z,115
2017-09-26T11:56:02.413Z,110
2017-09-26T11:57:04.043Z,105
2017-09-26T11:58:05.672Z,105
2017-09-26T11:59:07.306Z,100
2017-09-26T12:00:08.934Z,100
2017-09-26T12:01:10.565Z,100
2017-09-26T12:02:12.192Z,95
2017-09-26T12:03:13.820Z,95
2017-09-26T12:04:15.451Z,90
2017-09-26T12:05:17.081Z,90
2017-09-26T12:06:18.727Z,90
2017-09-26T12:07:20.355Z,90
2017-09-26T12:08:21.983Z,90
2017-09-26T12:09:23.612Z,90
2017-09-26T12:10:25.242Z,90
2017-09-26T12:11:26.871Z,90
2017-09-26T12:12:28.509Z,95
2017-09-26T12:13:30.142Z,95
2017-09-26T12:14:31.771Z,100
2017-09-26T12:15:33.401Z,100
2017-09-26T12:16:35.028Z,100
2017-09-26T12:17:36.656Z,105
2017-09-26T12:18:38.287Z,110
2017-09-26T12:19:39.914Z,120
2017-09-26T12:20:41.544Z,120
2017-09-26T12:21:43.175Z,125
2017-09-26T12:22:44.803Z,130
2017-09-26T12:23:46.433Z,140
2017-09-26T12:24:48.063Z,150
2017-09-26T12:25:49.718Z,155
2017-09-26T12:26:51.349Z,160
2017-09-26T12:27:55.595Z,165
2017-09-26T12:28:57.226Z,170
2017-09-26T12:29:58.855Z,180
2017-09-26T12:31:00.485Z,195
2017-09-26T12:32:02.118Z,210
2017-09-26T12:33:03.743Z,225
2017-09-26T12:34:05.436Z,250
2017-09-26T12:35:07.066Z,280
2017-09-26T12:36:10.072Z,300
2017-09-26T12:37:11.703Z,335
2017-09-26T12:38:13.332Z,355
2017-09-26T12:39:14.966Z,360
2017-09-26T12:40:16.941Z,360
2017-09-26T12:41:18.585Z,355
2017-09-26T12:42:20.781Z,355
2017-09-26T12:43:22.411Z,355
2017-09-26T12:44:24.040Z,350
2017-09-26T12:45:25.671Z,355
2017-09-26T12:46:27.316Z,370
2017-09-26T12:47:28.944Z,390
2017-09-26T12:48:30.578Z,410
2017-09-26T12:49:32.213Z,410
2017-09-26T12:50:33.854Z,410
2017-09-26T12:51:35.483Z,415
2017-09-26T12:52:37.113Z,445
2017-09-26T12:53:38.744Z,535
2017-09-26T12:54:40.388Z,720
2017-09-26T12:55:42.022Z,1175
2017-09-26T12:56:43.653Z,1130
2017-09-26T12:57:45.289Z,2170
2017-09-26T12:58:46.921Z,2480
2017-09-26T12:59:48.555Z,2170
2017-09-26T13:00:50.188Z,2235
2017-09-26T13:01:51.823Z,2365
2017-09-26T13:02:54.162Z,2280
2017-09-26T13:03:55.795Z,2355
2017-09-26T13:04:57.434Z,2445
2017-09-26T13:05:59.072Z,2425
2017-09-26T13:07:00.708Z,2445
2017-09-26T13:08:03.133Z,2385
2017-09-26T13:09:05.512Z,2295
2017-09-26T13:10:08.120Z,2200
2017-09-26T13:11:09.758Z,2210
2017-09-26T13:12:11.399Z,2270
2017-09-26T13:13:13.034Z,1895
2017-09-26T13:14:14.675Z,2160
2017-09-26T13:15:16.311Z,2330
2017-09-26T13:16:17.952Z,2395
2017-09-26T13:17:19.590Z,2305
2017-09-26T13:18:21.258Z,1950
2017-09-26T13:19:22.873Z,1000
2017-09-26T13:20:24.511Z,1380
2017-09-26T13:21:26.847Z,990
2017-09-26T13:22:28.487Z,1600
2017-09-26T13:23:30.128Z,1460
2017-09-26T13:24:31.766Z,665
2017-09-26T13:25:33.406Z,750
2017-09-26T13:26:35.048Z,835
2017-09-26T13:27:36.982Z,805
2017-09-26T13:28:38.622Z,675
2017-09-26T13:29:40.259Z,815
2017-09-26T13:30:41.895Z,615
2017-09-26T13:31:43.534Z,580
2017-09-26T13:32:45.169Z,520
2017-09-26T13:33:46.867Z,475
2017-09-26T13:34:48.499Z,455
2017-09-26T13:35:50.134Z,455
2017-09-26T13:36:51.799Z,475
2017-09-26T13:37:53.434Z,610
2017-09-26T13:38:55.072Z,775
2017-09-26T13:39:56.718Z,555
2017-09-26T13:40:58.364Z,465
2017-09-26T13:41:59.998Z,395
2017-09-26T13:43:01.659Z,350
2017-09-26T13:44:03.291Z,335
2017-09-26T13:45:04.924Z,435
2017-09-26T13:46:06.556Z,445
2017-09-26T13:47:08.191Z,355
2017-09-26T13:48:09.902Z,345
2017-09-26T13:49:11.561Z,335
2017-09-26T13:50:13.198Z,300
2017-09-26T13:51:14.823Z,270
2017-09-26T13:52:16.462Z,255
2017-09-26T13:53:18.095Z,240
2017-09-26T13:54:19.728Z,210
2017-09-26T13:55:21.362Z,190
2017-09-26T13:56:22.995Z,175
2017-09-26T13:57:24.627Z,160
2017-09-26T13:58:26.260Z,150
2017-09-26T13:59:27.891Z,150
2017-09-26T14:00:29.524Z,145
2017-09-26T14:01:31.154Z,140
2017-09-26T14:02:32.787Z,135
2017-09-26T14:03:34.499Z,130
2017-09-26T14:04:36.128Z,125
2017-09-26T14:05:37.763Z,120
2017-09-26T14:06:39.395Z,120
2017-09-26T14:07:41.029Z,120
2017-09-26T14:08:42.660Z,120
2017-09-26T14:09:44.292Z,115
2017-09-26T14:10:45.923Z,120
2017-09-26T14:11:47.556Z,140
2017-09-26T14:12:49.180Z,170
2017-09-26T14:13:50.807Z,185
2017-09-26T14:14:52.438Z,195
2017-09-26T14:15:54.067Z,200
2017-09-26T14:16:55.697Z,190
2017-09-26T14:17:57.325Z,180
2017-09-26T14:18:58.954Z,170
2017-09-26T14:20:00.633Z,165
2017-09-26T14:21:02.259Z,160
2017-09-26T14:22:03.890Z,150
2017-09-26T14:23:05.517Z,135
2017-09-26T14:24:07.146Z,125
2017-09-26T14:25:08.770Z,110
2017-09-26T14:26:10.398Z,90
2017-09-26T14:27:12.059Z,80
2017-09-26T14:28:13.651Z,70
2017-09-26T14:29:15.278Z,70
2017-09-26T14:30:16.908Z,70
2017-09-26T14:31:18.532Z,75
2017-09-26T14:32:20.156Z,75
2017-09-26T14:33:21.788Z,75
2017-09-26T14:34:23.406Z,70
2017-09-26T14:35:25.033Z,65
2017-09-26T14:36:26.659Z,60